Time;durP1;ratioP1;P1;durP2;ratioP2;P2;SDS_P1;SDS_P2;PMS_P1;PMS_P2;Temp;Humidity;BMP_temperature;BMP_pressure;BME280_temperature;BME280_humidity;BME280_pressure;Samples;Min_cycle;Max_cycle;Signal;HPM_P1;HPM_P2
2023/07/24 00:01:14;;;;;;;;;;;;;;;;;;5008866;28;20324;-82
2023/07/24 00:03:40;;;;;;;;;;;;;;;;;;5008770;28;19929;-82
2023/07/24 00:06:06;;;;;;;;;;;;;;;;;;4976031;28;19951;-82
2023/07/24 00:08:32;;;;;;;;;;;;;;;;;;4960288;28;20016;-82
2023/07/24 00:10:58;;;;;;;;;;;;;;;;;;4976485;28;20275;-82
2023/07/24 00:13:24;;;;;;;;;;;;;;;;;;4975946;28;20005;-82
2023/07/24 00:15:50;;;;;;;;;;;;;;;;;;4959389;28;20368;-83
2023/07/24 00:18:16;;;;;;;;;;;;;;;;;;4974016;28;19926;-83
2023/07/24 00:20:41;;;;;;;;;;;17.60;99.90;;;;;;4974985;28;19928;-83
2023/07/24 00:23:07;;;;;;;;;;;17.60;99.90;;;;;;4970731;28;19921;-84
2023/07/24 00:25:33;;;;;;;;;;;17.10;99.90;;;;;;4989704;28;19922;-84
2023/07/24 00:27:58;;;;;;;;;;;17.30;99.90;;;;;;5007282;28;20001;-83
2023/07/24 00:30:24;;;;;;;;;;;17.10;99.90;;;;;;4993030;28;20398;-84
2023/07/24 00:32:50;;;;;;;;;;;17.00;99.90;;;;;;4961823;28;19944;-84
2023/07/24 00:35:15;;;;;;;;;;;17.10;99.90;;;;;;4993934;28;19971;-78
2023/07/24 00:37:41;;;;;;;;;;;16.80;99.90;;;;;;4976211;28;20358;-78
2023/07/24 00:40:06;;;;;;;;;;;17.20;99.90;;;;;;4974926;28;19921;-85
2023/07/24 00:42:32;;;;;;;;;;;16.90;99.90;;;;;;5010281;28;19975;-79
2023/07/24 00:44:59;;;;;;;;;;;;;;;;;;4978254;28;19921;-79
2023/07/24 00:47:25;;;;;;;;;;;;;;;;;;4993235;28;20004;-80
2023/07/24 00:49:50;;;;;;;;;;;;;;;;;;4993675;28;20434;-84
2023/07/24 00:52:16;;;;;;;;;;;;;;;;;;4993986;28;19944;-84
2023/07/24 00:54:42;;;;;;;;;;;;;;;;;;4993998;28;20015;-84
2023/07/24 00:57:08;;;;;;;;;;;;;;;;;;4994407;28;19967;-86
2023/07/24 00:59:34;;;;;;;;;;;;;;;;;;4976102;28;20458;-86
2023/07/24 01:02:00;;;;;;;;;;;;;;;;;;5026990;28;19925;-85
2023/07/24 01:04:26;;;;;;;;;;;;;;;;;;5010069;28;19979;-84
2023/07/24 01:06:52;;;;;;;;;;;;;;;;;;5027965;28;19979;-84
2023/07/24 01:09:18;;;;;;;;;;;;;;;;;;5027306;28;19921;-84
2023/07/24 01:11:44;;;;;;;;;;;;;;;;;;5027895;28;19927;-84
2023/07/24 01:14:10;;;;;;;;;;;;;;;;;;5019367;28;19932;-84
2023/07/24 01:16:36;;;;;;;;;;;;;;;;;;4975361;28;19921;-83
2023/07/24 01:19:02;;;;;;;;;;;;;;;;;;4968478;28;19922;-83
2023/07/24 01:21:28;;;;;;;;;;;;;;;;;;5007638;28;19922;-84
2023/07/24 01:23:54;;;;;;;;;;;;;;;;;;5007767;28;19998;-84
2023/07/24 01:26:20;;;;;;;;;;;;;;;;;;4991279;28;19929;-84
2023/07/24 01:28:46;;;;;;;;;;;;;;;;;;5007572;28;19922;-85
2023/07/24 01:31:13;;;;;;;;;;;;;;;;;;5007741;28;19929;-89
2023/07/24 01:33:39;;;;;;;;;;;;;;;;;;5007254;28;19968;-85
2023/07/24 01:36:05;;;;;;;;;;;;;;;;;;5006898;28;19922;-84
2023/07/24 01:38:31;;;;;;;;;;;;;;;;;;4990429;28;19925;-84
2023/07/24 01:40:57;;;;;;;;;;;;;;;;;;5007708;28;19967;-84
2023/07/24 01:43:23;;;;;;;;;;;;;;;;;;4999557;28;20000;-84
2023/07/24 01:45:49;;;;;;;;;;;;;;;;;;5010451;28;19921;-85
2023/07/24 01:48:15;;;;;;;;;;;;;;;;;;5010241;28;19922;-89
2023/07/24 01:50:41;;;;;;;;;;;;;;;;;;4996936;28;19971;-84
2023/07/24 01:53:08;;;;;;;;;;;;;;;;;;5026948;28;19972;-84
2023/07/24 01:55:34;;;;;;;;;;;;;;;;;;5005841;28;19975;-84
2023/07/24 01:57:59;;;;;;;;;;;;;;;;;;5000356;28;19925;-84
2023/07/24 02:00:25;;;;;;;;;;;;;;;;;;5012307;28;19965;-84
2023/07/24 02:02:51;;;;;;;;;;;;;;;;;;5026448;28;19928;-85
2023/07/24 02:05:17;;;;;;;;;;;;;;;;;;4996754;28;19922;-89
2023/07/24 02:07:43;;;;;;;;;;;;;;;;;;5014908;28;19945;-84
2023/07/24 02:10:09;;;;;;;;;;;;;;;;;;5007325;28;19921;-85
2023/07/24 02:12:35;;;;;;;;;;;;;;;;;;5006604;28;19972;-85
2023/07/24 02:15:01;;;;;;;;;;;;;;;;;;4990347;28;19921;-85
2023/07/24 02:17:27;;;;;;;;;;;;;;;;;;5006756;28;20012;-85
2023/07/24 02:19:54;;;;;;;;;;;;;;;;;;4958225;28;19975;-84
2023/07/24 02:22:19;;;;;;;;;;;;;;;;;;4974112;28;19922;-88
2023/07/24 02:24:45;;;;;;;;;;;;;;;;;;4973619;28;19941;-85
2023/07/24 02:27:11;;;;;;;;;;;;;;;;;;4974059;28;20359;-85
2023/07/24 02:29:37;;;;;;;;;;;;;;;;;;4957844;28;20355;-85
2023/07/24 02:32:03;;;;;;;;;;;;;;;;;;4963251;28;20275;-85
2023/07/24 02:34:29;;;;;;;;;;;;;;;;;;5006402;28;19986;-85
2023/07/24 02:36:55;;;;;;;;;;;;;;;;;;5006744;28;19987;-85
2023/07/24 02:39:21;;;;;;;;;;;;;;;;;;4990258;28;19929;-88
2023/07/24 02:41:47;;;;;;;;;;;;;;;;;;5007094;28;20391;-85
2023/07/24 02:44:13;;;;;;;;;;;;;;;;;;4989919;28;19921;-84
2023/07/24 02:46:39;;;;;;;;;;;;;;;;;;5015173;28;20393;-85
2023/07/24 02:49:05;;;;;;;;;;;;;;;;;;4989386;28;19922;-85
2023/07/24 02:51:31;;;;;;;;;;;;;;;;;;4980378;28;19957;-85
2023/07/24 02:53:57;;;;;;;;;;;;;;;;;;4970904;28;19922;-85
2023/07/24 02:56:23;;;;;;;;;;;;;;;;;;4970623;28;19929;-88
2023/07/24 02:58:49;;;;;;;;;;;;;;;;;;4970365;28;19963;-85
2023/07/24 03:01:15;;;;;;;;;;;;;;;;;;4970852;28;19961;-85
2023/07/24 03:03:41;;;;;;;;;;;;;;;;;;4970059;28;20430;-85
2023/07/24 03:06:07;;;;;;;;;;;;;;;;;;4970812;28;19922;-84
2023/07/24 03:08:33;;;;;;;;;;;;;;;;;;4986935;28;19933;-84
2023/07/24 03:10:59;;;;;;;;;;;;;;;;;;4970768;28;19922;-84
2023/07/24 03:13:25;;;;;;;;;;;;;;;;;;4970198;28;20359;-85
2023/07/24 03:15:50;;;;;;;;;;;;;;;;;;4970615;28;19926;-84
2023/07/24 03:18:16;;;;;;;;;;;;;;;;;;4970225;28;19928;-84
2023/07/24 03:20:42;;;;;;;;;;;;;;;;;;4976030;28;19937;-84
2023/07/24 03:23:08;;;;;;;;;;;;;;;;;;4989570;28;19922;-84
2023/07/24 03:25:35;;;;;;;;;;;;;;;;;;4989260;28;19975;-85
2023/07/24 03:28:02;;;;;;;;;;;;;;;;;;4989647;28;19933;-84
2023/07/24 03:30:28;;;;;;;;;;;;;;;;;;4973513;28;19922;-84
2023/07/24 03:32:54;;;;;;;;;;;;;;;;;;4989793;28;19921;-85
2023/07/24 03:35:20;;;;;;;;;;;;;;;;;;4989855;28;19921;-84
2023/07/24 03:37:46;;;;;;;;;;;;;;;;;;4989480;28;19929;-85
2023/07/24 03:40:12;;;;;;;;;;;;;;;;;;4973539;28;19922;-86
2023/07/24 03:42:38;;;;;;;;;;;;;;;;;;4973085;28;19925;-86
2023/07/24 03:45:03;;;;;;;;;;;;;;;;;;4989283;28;19922;-84
2023/07/24 03:47:29;;;;;;;;;;;;;;;;;;4979069;28;19929;-84
2023/07/24 03:49:55;;;;;;;;;;;;;;;;;;4972783;28;20000;-85
2023/07/24 03:52:21;;;;;;;;;;;;;;;;;;4989452;28;19922;-85
2023/07/24 03:54:47;;;;;;;;;;;;;;;;;;4989204;28;19967;-86
2023/07/24 03:57:13;;;;;;;;;;;;;;;;;;4973094;28;19929;-84
2023/07/24 03:59:39;;;;;;;;;;;;;;;;;;4953996;28;20364;-84
2023/07/24 04:02:05;;;;;;;;;;;;;;;;;;4972984;28;19922;-85
2023/07/24 04:04:31;;;;;;;;;;;;;;;;;;4972597;28;19926;-85
2023/07/24 04:06:57;;;;;;;;;;;;;;;;;;4989749;28;19930;-84
2023/07/24 04:09:23;;;;;;;;;;;;;;;;;;4973086;28;20355;-85
2023/07/24 04:11:49;;;;;;;;;;;;;;;;;;4991752;28;20363;-84
2023/07/24 04:14:15;;;;;;;;;;;;;;;;;;4992324;28;19921;-86
2023/07/24 04:16:41;;;;;;;;;;;;;;;;;;4992337;28;19976;-84
2023/07/24 04:19:07;;;;;;;;;;;;;;;;;;4976065;28;19923;-84
2023/07/24 04:21:33;;;;;;;;;;;;;;;;;;4992246;28;20013;-84
2023/07/24 04:23:59;;;;;;;;;;;;;;;;;;4976183;28;20367;-85
2023/07/24 04:26:25;;;;;;;;;;;;;;;;;;4976270;28;20461;-84
2023/07/24 04:28:50;;;;;;;;;;;;;;;;;;4988848;28;19992;-85
2023/07/24 04:31:16;;;;;;;;;;;;;;;;;;4976036;28;19948;-85
2023/07/24 04:33:42;;;;;;;;;;;;;;;;;;4975545;28;19922;-84
2023/07/24 04:36:08;;;;;;;;;;;;;;;;;;4975705;28;19929;-85
2023/07/24 04:38:34;;;;;;;;;;;;;;;;;;4974771;28;19922;-85
2023/07/24 04:41:00;;;;;;;;;;;;;;;;;;4972754;28;20372;-85
2023/07/24 04:43:26;;;;;;;;;;;;;;;;;;4972272;28;19933;-85
2023/07/24 04:45:52;;;;;;;;;;;;;;;;;;4971495;28;19926;-85
2023/07/24 04:48:18;;;;;;;;;;;;;;;;;;4987615;28;19922;-85
2023/07/24 04:50:44;;;;;;;;;;;;;;;;;;4987509;28;19970;-85
2023/07/24 04:53:10;;;;;;;;;;;;;;;;;;4992199;28;19925;-85
2023/07/24 04:55:36;;;;;;;;;;;;;;;;;;4991603;28;19928;-86
2023/07/24 04:58:02;;;;;;;;;;;;;;;;;;4991467;28;20323;-85
2023/07/24 05:00:28;;;;;;;;;;;;;;;;;;4972731;28;19921;-86
2023/07/24 05:02:54;;;;;;;;;;;;;;;;;;4971976;28;20283;-86
2023/07/24 05:05:20;;;;;;;;;;;;;;;;;;4956014;28;20091;-85
2023/07/24 05:07:46;;;;;;;;;;;;;;;;;;4956063;28;20378;-85
2023/07/24 05:10:13;;;;;;;;;;;;;;;;;;4956261;28;20378;-86
2023/07/24 05:12:39;;;;;;;;;;;;;;;;;;4971307;28;19932;-85
2023/07/24 05:15:05;;;;;;;;;;;;;;;;;;4972294;28;19922;-86
2023/07/24 05:17:31;;;;;;;;;;;;;;;;;;4972552;28;19933;-85
2023/07/24 05:19:57;;;;;;;;;;;;;;;;;;4955605;28;19922;-85
2023/07/24 05:22:22;;;;;;;;;;;;;;;;;;4974287;28;20364;-86
2023/07/24 05:24:48;;;;;;;;;;;;;;;;;;5007166;28;19922;-86
2023/07/24 05:27:15;;;;;;;;;;;;;;;;;;4991679;28;20436;-86
2023/07/24 05:29:41;;;;;;;;;;;;;;;;;;4961339;28;19928;-86
2023/07/24 05:32:07;;;;;;;;;;;;;;;;;;4971920;28;20016;-85
2023/07/24 05:34:33;;;;;;;;;;;;;;;;;;4977860;28;19922;-86
2023/07/24 05:36:59;;;;;;;;;;;;;;;;;;4988736;28;19988;-85
2023/07/24 05:39:25;;;;;;;;;;;;;;;;;;4978159;28;20379;-85
2023/07/24 05:41:51;;;;;;;;;;;;;;;;;;4987749;28;20283;-85
2023/07/24 05:44:17;;;;;;;;;;;;;;;;;;4971416;28;19975;-85
2023/07/24 05:46:43;;;;;;;;;;;;;;;;;;4972301;28;19925;-86
2023/07/24 05:49:09;;;;;;;;;;;;;;;;;;4986240;28;19922;-86
2023/07/24 05:51:35;;;;;;;;;;;;;;;;;;4989905;28;19965;-85
2023/07/24 05:54:01;;;;;;;;;;;;;;;;;;4984193;28;20424;-85
2023/07/24 05:56:27;;;;;;;;;;;;;;;;;;4974775;28;19987;-85
2023/07/24 05:58:53;;;;;;;;;;;;;;;;;;4990436;28;19925;-85
2023/07/24 06:01:19;;;;;;;;;;;;;;;;;;4990794;28;19922;-85
2023/07/24 06:03:45;;;;;;;;;;;;;;;;;;4990330;28;19929;-86
2023/07/24 06:06:11;;;;;;;;;;;;;;;;;;4974867;28;19926;-87
2023/07/24 06:08:36;;;;;;;;;;;;;;;;;;4969879;28;19922;-88
2023/07/24 06:11:02;;;;;;;;;;;;;;;;;;4971002;28;19956;-87
2023/07/24 06:13:28;;;;;;;;;;;;;;;;;;4973458;28;19922;-78
2023/07/24 06:15:54;;;;;;;;;;;;;;;;;;5000187;28;19922;-78
2023/07/24 06:18:20;;;;;;;;;;;;;;;;;;4993200;28;19925;-80
2023/07/24 06:20:46;;;;;;;;;;;;;;;;;;4993390;28;19932;-79
2023/07/24 06:23:12;;;;;;;;;;;;;;;;;;5009977;28;19922;-79
2023/07/24 06:25:38;;;;;;;;;;;;;;;;;;5009782;28;19921;-82
2023/07/24 06:28:04;;;;;;;;;;;;;;;;;;4991730;28;20469;-79
2023/07/24 06:30:30;;;;;;;;;;;;;;;;;;4989262;28;19922;-73
2023/07/24 06:32:56;;;;;;;;;;;;;;;;;;4975206;28;19926;-79
2023/07/24 06:35:22;;;;;;;;;;;;;;;;;;4988451;28;19922;-77
2023/07/24 06:37:48;;;;;;;;;;;;;;;;;;4987886;28;19975;-81
2023/07/24 06:40:14;;;;;;;;;;;;;;;;;;4988703;28;19921;-81
2023/07/24 06:42:40;;;;;;;;;;;;;;;;;;4971841;28;19926;-82
2023/07/24 06:45:06;;;;;;;;;;;;;;;;;;4987778;28;20370;-81
2023/07/24 06:47:32;;;;;;;;;;;;;;;;;;4971953;28;19921;-81
2023/07/24 06:49:58;;;;;;;;;;;;;;;;;;4970999;28;19921;-81
2023/07/24 06:52:24;;;;;;;;;;;;;;;;;;4987299;28;20027;-81
2023/07/24 06:54:49;;;;;;;;;;;;;;;;;;4969487;28;19929;-81
2023/07/24 06:57:15;;;;;;;;;;;;;;;;;;4974188;28;19921;-81
2023/07/24 06:59:41;;;;;;;;;;;;;;;;;;4968011;28;20025;-82
2023/07/24 07:02:07;;;;;;;;;;;;;;;;;;4968752;28;19922;-81
2023/07/24 07:04:33;;;;;;;;;;;;;;;;;;5002805;28;19967;-81
2023/07/24 07:06:59;;;;;;;;;;;;;;;;;;4971698;28;19922;-81
2023/07/24 07:09:25;;;;;;;;;;;;;;;;;;4971564;28;19928;-81
2023/07/24 07:11:51;;;;;;;;;;;;;;;;;;4987805;28;19961;-81
2023/07/24 07:14:17;;;;;;;;;;;;;;;;;;4987363;28;20013;-81
2023/07/24 07:16:44;;;;;;;;;;;;;;;;;;4968597;28;19929;-82
2023/07/24 07:19:10;;;;;;;;;;;;;;;;;;4963909;28;19974;-70
2023/07/24 07:21:36;;;;;;;;;;;;;;;;;;4972978;28;20008;-69
2023/07/24 07:24:02;;;;;;;;;;;;;;;;;;4988431;28;19929;-70
2023/07/24 07:26:29;;;;;;;;;;;;;;;;;;4977485;28;20427;-70
2023/07/24 07:28:55;;;;;;;;;;;;;;;;;;4968613;28;19975;-78
2023/07/24 07:31:21;;;;;;;;;;;;;;;;;;4969868;28;20016;-78
2023/07/24 07:33:48;;;;;;;;;;;;;;;;;;4985099;28;19922;-82
2023/07/24 07:36:14;;;;;;;;;;;;;;;;;;4971872;28;19972;-86
2023/07/24 07:38:40;;;;;;;;;;;;;;;;;;4969694;28;20019;-87
2023/07/24 07:41:06;;;;;;;;;;;;;;;;;;4976583;28;19922;-84
2023/07/24 07:43:31;;;;;;;;;;;;;;;;;;4988657;28;19928;-87
2023/07/24 07:45:59;;;;;;;;;;;;;;;;;;4980197;28;19949;-86
2023/07/24 07:48:25;;;;;;;;;;;;;;;;;;4964809;28;19996;-85
2023/07/24 07:50:51;;;;;;;;;;;;;;;;;;4943740;28;19964;-85
2023/07/24 07:53:17;;;;;;;;;;;;;;;;;;4985799;28;19965;-84
2023/07/24 07:55:43;;;;;;;;;;;;;;;;;;4953100;28;19965;-81
2023/07/24 07:58:09;;;;;;;;;;;;;;;;;;4966536;28;19976;-82
2023/07/24 08:00:35;;;;;;;;;;;;;;;;;;4959587;28;19928;-86
2023/07/24 08:03:01;;;;;;;;;;;;;;;;;;4937323;28;19930;-85
2023/07/24 08:05:27;;;;;;;;;;;;;;;;;;4959175;28;19972;-77
2023/07/24 08:07:52;;;;;;;;;;;;;;;;;;4972503;28;20422;-85
2023/07/24 08:10:18;;;;;;;;;;;;;;;;;;4972578;28;20355;-86
2023/07/24 08:12:44;;;;;;;;;;;;;;;;;;4965362;28;20415;-86
2023/07/24 08:15:10;;;;;;;;;;;;;;;;;;4966663;28;20635;-87
2023/07/24 08:17:36;;;;;;;;;;;;;;;;;;4970049;28;19945;-87
2023/07/24 08:20:02;;;;;;;;;;;;;;;;;;4965917;28;19922;-86
2023/07/24 08:22:28;;;;;;;;;;;;;;;;;;4977244;28;20367;-86
2023/07/24 08:24:54;;;;;;;;;;;;;;;;;;4972503;28;19929;-87
2023/07/24 08:27:20;;;;;;;;;;;;;;;;;;4969872;28;19933;-87
2023/07/24 08:29:46;;;;;;;;;;;;;;;;;;4967073;28;19923;-86
2023/07/24 08:32:12;;;;;;;;;;;;;;;;;;4969518;28;19922;-86
2023/07/24 08:34:38;;;;;;;;;;;;;;;;;;4969897;28;20003;-81
2023/07/24 08:37:04;;;;;;;;;;;;;;;;;;4952758;28;20403;-81
2023/07/24 08:39:30;;;;;;;;;;;;;;;;;;4957909;28;20388;-84
2023/07/24 08:41:56;;;;;;;;;;;;;;;;;;4970612;28;19922;-84
2023/07/24 08:44:24;;;;;;;;;;;;;;;;;;4954568;28;19925;-87
2023/07/24 08:46:50;;;;;;;;;;;;;;;;;;4980920;28;19926;-82
2023/07/24 08:49:16;;;;;;;;;;;;;;;;;;4983116;28;19949;-82
2023/07/24 08:51:42;;;;;;;;;;;;;;;;;;4982357;28;19932;-85
2023/07/24 08:54:08;;;;;;;;;;;;;;;;;;4977998;28;20336;-84
2023/07/24 08:56:33;;;;;;;;;;;;;;;;;;4974112;28;19925;-78
2023/07/24 08:58:59;;;;;;;;;;;;;;;;;;4981569;28;20368;-81
2023/07/24 09:01:25;;;;;;;;;;;;;;;;;;4978342;28;20283;-81
2023/07/24 09:03:51;;;;;;;;;;;;;;;;;;4976013;28;19987;-74
2023/07/24 09:06:17;;;;;;;;;;;;;;;;;;4988695;28;20374;-79
2023/07/24 09:08:43;;;;;;;;;;;;;;;;;;4977200;28;20386;-85
2023/07/24 09:11:09;;;;;;;;;;;;;;;;;;4974583;28;19947;-87
2023/07/24 09:13:35;;;;;;;;;;;;;;;;;;4973771;28;19932;-83
2023/07/24 09:16:01;;;;;;;;;;;;;;;;;;4979005;28;19930;-81
2023/07/24 09:18:27;;;;;;;;;;;;;;;;;;4971590;28;19933;-82
2023/07/24 09:20:53;;;;;;;;;;;;;;;;;;4984621;28;20004;-82
2023/07/24 09:23:19;;;;;;;;;;;;;;;;;;4988984;28;19975;-81
2023/07/24 09:25:45;;;;;;;;;;;;;;;;;;4989096;28;19926;-78
2023/07/24 09:28:11;;;;;;;;;;;;;;;;;;4972276;28;19929;-81
2023/07/24 09:30:37;;;;;;;;;;;;;;;;;;5001717;28;19926;-82
2023/07/24 09:33:03;;;;;;;;;;;;;;;;;;4993625;28;19937;-80
2023/07/24 09:35:29;;;;;;;;;;;;;;;;;;4979350;28;19995;-78
2023/07/24 09:37:55;;;;;;;;;;;;;;;;;;4988646;28;19922;-76
2023/07/24 09:40:22;;;;;;;;;;;;;;;;;;4988238;28;19930;-77
2023/07/24 09:42:55;;;;;;;;;;;;;;;;;;4979685;28;19922;-77
2023/07/24 09:45:21;;;;;;;;;;;;;;;;;;4984524;28;20430;-77
2023/07/24 09:47:48;;;;;;;;;;;;;;;;;;4968299;28;20008;-78
2023/07/24 09:50:14;;;;;;;;;;;;;;;;;;4969734;28;19922;-77
2023/07/24 09:52:41;;;;;;;;;;;;;;;;;;4970752;28;19922;-77
2023/07/24 09:55:07;;;;;;;;;;;;;;;;;;4978419;28;19930;-78
2023/07/24 09:57:33;;;;;;;;;;;;;;;;;;4964800;28;20373;-82
2023/07/24 09:59:59;;;;;;;;;;;;;;;;;;4992669;28;19944;-82
2023/07/24 10:02:26;;;;;;;;;;;;;;;;;;4988107;28;20367;-84
2023/07/24 10:04:51;;;;;;;;;;;;;;;;;;4972219;28;19926;-75
2023/07/24 10:07:21;;;;;;;;;;;;;;;;;;4977798;28;19930;-76
2023/07/24 10:09:47;;;;;;;;;;;;;;;;;;4985759;28;20340;-75
2023/07/24 10:12:13;;;;;;;;;;;;;;;;;;4970289;28;19972;-79
2023/07/24 10:14:39;;;;;;;;;;;;;;;;;;4980469;28;19922;-83
2023/07/24 10:17:05;;;;;;;;;;;;;;;;;;4979890;28;19928;-81
2023/07/24 10:19:31;;;;;;;;;;;;;;;;;;4988868;28;20431;-81
2023/07/24 10:21:57;;;;;;;;;;;;;;;;;;4973250;28;19921;-80
2023/07/24 10:24:23;;;;;;;;;;;;;;;;;;4991935;28;19981;-77
2023/07/24 10:26:49;;;;;;;;;;;;;;;;;;4973189;28;19947;-91
2023/07/24 10:29:15;;;;;;;;;;;;;;;;;;4990493;28;20012;-91
2023/07/24 10:31:41;;;;;;;;;;;;;;;;;;4976323;28;20295;-91
2023/07/24 10:34:07;;;;;;;;;;;;;;;;;;4985850;28;19944;-93
2023/07/24 10:36:33;;;;;;;;;;;;;;;;;;4970166;28;19922;-92
2023/07/24 10:39:01;;;;;;;;;;;;;;;;;;4986289;28;19922;-87
2023/07/24 10:41:27;;;;;;;;;;;;;;;;;;4999544;28;19922;-90
2023/07/24 10:43:53;;;;;;;;;;;;;;;;;;4987220;28;20441;-91
2023/07/24 10:46:19;;;;;;;;;;;;;;;;;;4970010;28;19922;-90
2023/07/24 10:48:45;;;;;;;;;;;;;;;;;;4985709;28;19980;-89
2023/07/24 10:51:11;;;;;;;;;;;;;;;;;;4983344;28;19921;-92
2023/07/24 10:53:37;;;;;;;;;;;;;;;;;;4974179;28;19922;-94
2023/07/24 10:56:03;;;;;;;;;;;;;;;;;;4986860;28;19979;-91
2023/07/24 10:58:29;;;;;;;;;;;;;;;;;;4985340;28;19922;-92
2023/07/24 11:00:56;;;;;;;;;;;;;;;;;;4987898;28;19973;-91
2023/07/24 11:03:22;;;;;;;;;;;;;;;;;;4969029;28;19922;-91
2023/07/24 11:05:48;;;;;;;;;;;;;;;;;;4989087;28;19922;-91
2023/07/24 11:08:14;;;;;;;;;;;;;;;;;;4969534;28;19988;-92
2023/07/24 11:10:40;;;;;;;;;;;;;;;;;;4980220;28;20032;-92
2023/07/24 11:13:06;;;;;;;;;;;;;;;;;;4980588;28;19973;-86
2023/07/24 11:15:33;;;;;;;;;;;;;;;;;;4958367;28;19926;-90
2023/07/24 11:17:59;;;;;;;;;;;;;;;;;;4969746;28;20305;-94
2023/07/24 11:20:25;;;;;;;;;;;;;;;;;;4992168;28;20393;-92
2023/07/24 11:22:51;;;;;;;;;;;;;;;;;;4971305;28;19932;-91
2023/07/24 11:25:17;;;;;;;;;;;;;;;;;;4959901;28;19964;-91
2023/07/24 11:27:47;;;;;;;;;;;;;;;;;;5003080;28;19966;-90
2023/07/24 11:30:13;;;;;;;;;;;;;;;;;;4985542;28;19925;-89
2023/07/24 11:32:39;;;;;;;;;;;;;;;;;;4960135;28;19926;-90
2023/07/24 11:35:05;;;;;;;;;;;;;;;;;;4989351;28;19929;-91
2023/07/24 11:37:31;;;;;;;;;;;;;;;;;;4975849;28;19925;-91
2023/07/24 11:39:57;;;;;;;;;;;;;;;;;;4973489;28;19921;-92
2023/07/24 11:42:23;;;;;;;;;;;;;;;;;;4987900;28;19929;-91
2023/07/24 11:44:49;;;;;;;;;;;;;;;;;;4979478;28;19922;-84
2023/07/24 11:47:15;;;;;;;;;;;;;;;;;;4971505;28;19944;-83
2023/07/24 11:49:47;;;;;;;;;;;;;;;;;;4962321;28;19926;-82
2023/07/24 11:52:13;;;;;;;;;;;;;;;;;;4999876;28;19922;-83
2023/07/24 11:54:39;;;;;;;;;;;;;;;;;;4991469;28;19928;-78
2023/07/24 11:57:05;;;;;;;;;;;;;;;;;;4987553;28;19975;-78
2023/07/24 11:59:31;;;;;;;;;;;;;;;;;;4969977;28;19922;-76
2023/07/24 12:01:57;;;;;;;;;;;;;;;;;;4987499;28;20459;-75
2023/07/24 12:04:23;;;;;;;;;;;;;;;;;;4974424;28;19973;-77
2023/07/24 12:06:49;;;;;;;;;;;;;;;;;;4986451;28;20307;-77
2023/07/24 12:09:15;;;;;;;;;;;;;;;;;;4987710;28;19965;-90
2023/07/24 12:11:44;;;;;;;;;;;;;;;;;;4984262;28;20426;-90
2023/07/24 12:14:10;;;;;;;;;;;;;;;;;;5012177;28;19923;-90
2023/07/24 12:16:36;;;;;;;;;;;;;;;;;;5002166;28;19944;-90
2023/07/24 12:19:02;;;;;;;;;;;;;;;;;;4982855;28;19922;-88
2023/07/24 12:21:28;;;;;;;;;;;;;;;;;;4971514;28;19922;-88
2023/07/24 12:23:54;;;;;;;;;;;;;;;;;;5002313;28;20355;-89
2023/07/24 12:26:20;;;;;;;;;;;;;;;;;;4963531;28;19922;-88
2023/07/24 12:28:46;;;;;;;;;;;;;;;;;;4989218;28;19971;-90
2023/07/24 12:31:12;;;;;;;;;;;;;;;;;;4989636;28;19929;-89
2023/07/24 12:33:38;;;;;;;;;;;;;;;;;;4989159;28;19928;-90
2023/07/24 12:36:04;;;;;;;;;;;;;;;;;;4977139;28;19971;-89
2023/07/24 12:38:30;;;;;;;;;;;;;;;;;;4989363;28;19929;-90
2023/07/24 12:40:56;;;;;;;;;;;;;;;;;;5006383;28;19929;-90
2023/07/24 12:43:22;;;;;;;;;;;;;;;;;;5022632;28;19921;-90
2023/07/24 12:45:48;;;;;;;;;;;;;;;;;;5005863;28;19975;-90
2023/07/24 12:48:14;;;;;;;;;;;;;;;;;;4988501;28;19922;-90
2023/07/24 12:50:40;;;;;;;;;;;;;;;;;;4972978;28;20005;-90
2023/07/24 12:53:06;;;;;;;;;;;;;;;;;;4988991;28;20012;-91
2023/07/24 12:55:32;;;;;;;;;;;;;;;;;;4973755;28;19922;-91
2023/07/24 12:57:58;;;;;;;;;;;;;;;;;;4964435;28;19969;-93
2023/07/24 13:00:24;;;;;;;;;;;;;;;;;;4991148;28;19928;-89
2023/07/24 13:02:50;;;;;;;;;;;;;;;;;;4961430;28;19922;-78
2023/07/24 13:05:16;;;;;;;;;;;;;;;;;;4970690;28;20367;-82
2023/07/24 13:07:42;;;;;;;;;;;;;;;;;;4987745;28;20346;-77
2023/07/24 13:10:08;;;;;;;;;;;;;;;;;;4987940;28;19929;-79
2023/07/24 13:12:34;;;;;;;;;;;;;;;;;;4971497;28;19922;-78
2023/07/24 13:15:00;;;;;;;;;;;;;;;;;;4971267;28;19947;-77
2023/07/24 13:17:26;;;;;;;;;;;;;;;;;;4978945;28;19922;-78
2023/07/24 13:19:52;;;;;;;;;;;;;;;;;;4972738;28;20387;-77
2023/07/24 13:22:18;;;;;;;;;;;;;;;;;;4971275;28;20048;-82
2023/07/24 13:24:44;;;;;;;;;;;;;;;;;;4971114;28;20354;-77
2023/07/24 13:27:10;;;;;;;;;;;;;;;;;;4978835;28;19966;-77
2023/07/24 13:29:36;;;;;;;;;;;;;;;;;;4979108;28;19926;-78
2023/07/24 13:32:02;;;;;;;;;;;;;;;;;;4990173;28;19933;-78
2023/07/24 13:34:28;;;;;;;;;;;;;;;;;;4988385;28;20263;-78
2023/07/24 13:36:53;;;;;;;;;;;;;;;;;;4994869;28;19964;-77
2023/07/24 13:39:20;;;;;;;;;;;;;;;;;;4989677;28;19921;-83
2023/07/24 13:41:46;;;;;;;;;;;;;;;;;;4977907;28;19922;-77
2023/07/24 13:44:13;;;;;;;;;;;;;;;;;;5002043;28;19922;-78
2023/07/24 13:46:39;;;;;;;;;;;;;;;;;;4970269;28;19979;-77
2023/07/24 13:49:05;;;;;;;;;;;;;;;;;;5015462;28;19922;-78
2023/07/24 13:51:31;;;;;;;;;;;;;;;;;;4997407;28;20356;-78
2023/07/24 13:53:57;;;;;;;;;;;;;;;;;;4986125;28;19925;-79
2023/07/24 13:56:23;;;;;;;;;;;;;;;;;;4973290;28;19925;-85
2023/07/24 13:58:49;;;;;;;;;;;;;;;;;;4969905;28;20360;-78
2023/07/24 14:01:15;;;;;;;;;;;;;;;;;;4985859;28;19929;-79
2023/07/24 14:03:41;;;;;;;;;;;;;;;;;;4977153;28;19930;-78
2023/07/24 14:06:07;;;;;;;;;;;;;;;;;;5001698;28;20367;-85
2023/07/24 14:08:33;;;;;;;;;;;;;;;;;;4980020;28;19961;-83
2023/07/24 14:10:59;;;;;;;;;;;;;;;;;;4983552;28;19929;-89
2023/07/24 14:13:25;;;;;;;;;;;;;;;;;;4978444;28;19922;-88
2023/07/24 14:15:51;;;;;;;;;;;;;;;;;;4976903;28;19925;-90
2023/07/24 14:18:17;;;;;;;;;;;;;;;;;;4960540;28;19922;-92
2023/07/24 14:20:43;;;;;;;;;;;;;;;;;;4974342;28;20047;-92
2023/07/24 14:23:09;;;;;;;;;;;;;;;;;;4961534;28;19926;-92
2023/07/24 14:25:35;;;;;;;;;;;;;;;;;;4999600;28;19929;-91
2023/07/24 14:28:01;;;;;;;;;;;;;;;;;;4966365;28;20129;-92
2023/07/24 14:30:27;;;;;;;;;;;;;;;;;;4987058;28;19929;-91
2023/07/24 14:32:53;;;;;;;;;;;;;;;;;;4974347;28;20374;-90
2023/07/24 14:35:19;;;;;;;;;;;;;;;;;;4991292;28;20352;-89
2023/07/24 14:37:44;;;;;;;;;;;;;;;;;;4969829;28;19972;-90
2023/07/24 14:40:11;;;;;;;;;;;;;;;;;;4971822;28;19971;-89
2023/07/24 14:42:37;;;;;;;;;;;;;;;;;;5004003;28;20012;-88
2023/07/24 14:45:03;;;;;;;;;;;;;;;;;;4969786;28;20005;-89
2023/07/24 14:47:29;;;;;;;;;;;;;;;;;;4986846;28;19929;-87
2023/07/24 14:49:55;;;;;;;;;;;;;;;;;;4972697;28;19957;-86
2023/07/24 14:52:21;;;;;;;;;;;;;;;;;;4974159;28;19969;-89
2023/07/24 14:54:47;;;;;;;;;;;;;;;;;;4989211;28;19922;-88
2023/07/24 14:57:13;;;;;;;;;;;;;;;;;;4973562;28;19929;-89
2023/07/24 14:59:39;;;;;;;;;;;;;;;;;;4985685;28;19922;-89
2023/07/24 15:02:05;;;;;;;;;;;;;;;;;;4965376;28;19922;-90
2023/07/24 15:04:31;;;;;;;;;;;;;;;;;;5006133;28;19973;-90
2023/07/24 15:06:57;;;;;;;;;;;;;;;;;;5004933;28;19933;-91
2023/07/24 15:09:23;;;;;;;;;;;;;;;;;;4987520;28;20307;-90
2023/07/24 15:11:49;;;;;;;;;;;;;;;;;;4957957;28;20174;-91
2023/07/24 15:14:15;;;;;;;;;;;;;;;;;;4965139;28;20367;-92
2023/07/24 15:16:41;;;;;;;;;;;;;;;;;;4969862;28;19925;-91
2023/07/24 15:19:07;;;;;;;;;;;;;;;;;;5013897;28;19930;-90
2023/07/24 15:21:33;;;;;;;;;;;;;;;;;;4987487;28;19971;-91
2023/07/24 15:23:59;;;;;;;;;;;;;;;;;;4971350;28;19944;-92
2023/07/24 15:26:25;;;;;;;;;;;;;;;;;;4986909;28;20441;-89
2023/07/24 15:28:51;;;;;;;;;;;;;;;;;;4986774;28;19926;-89
2023/07/24 15:31:17;;;;;;;;;;;;;;;;;;4987416;28;20315;-90
2023/07/24 15:33:43;;;;;;;;;;;;;;;;;;4989314;28;20020;-88
2023/07/24 15:36:12;;;;;;;;;;;;;;;;;;4974034;28;19980;-86
2023/07/24 15:38:38;;;;;;;;;;;;;;;;;;4973224;28;20386;-93
2023/07/24 15:41:04;;;;;;;;;;;;;;;;;;4974589;28;19922;-88
2023/07/24 15:43:30;;;;;;;;;;;;;;;;;;4973712;28;19922;-89
2023/07/24 15:45:59;;;;;;;;;;;;;;;;;;4975971;28;19934;-92
2023/07/24 15:48:27;;;;;;;;;;;;;;;;;;4973470;28;20051;-91
2023/07/24 15:50:53;;;;;;;;;;;;;;;;;;4974511;28;19926;-92
2023/07/24 15:53:19;;;;;;;;;;;;;;;;;;4974029;28;19929;-88
2023/07/24 15:55:45;;;;;;;;;;;;;;;;;;4987764;28;19926;-92
2023/07/24 15:58:11;;;;;;;;;;;;;;;;;;4964784;28;19930;-84
2023/07/24 16:00:37;;;;;;;;;;;;;;;;;;4990436;28;20383;-83
2023/07/24 16:03:03;;;;;;;;;;;;;;;;;;4974429;28;19926;-81
2023/07/24 16:05:29;;;;;;;;;;;;;;;;;;4976113;28;20551;-81
2023/07/24 16:07:55;;;;;;;;;;;;;;;;;;4985415;28;19930;-81
2023/07/24 16:10:21;;;;;;;;;;;;;;;;;;4970577;28;19930;-82
2023/07/24 16:12:47;;;;;;;;;;;;;;;;;;4969947;28;19922;-82
2023/07/24 16:15:13;;;;;;;;;;;;;;;;;;4988448;28;20378;-80
2023/07/24 16:17:39;;;;;;;;;;;;;;;;;;4973263;28;19922;-81
2023/07/24 16:20:05;;;;;;;;;;;;;;;;;;4989385;28;19921;-83
2023/07/24 16:22:31;;;;;;;;;;;;;;;;;;4973997;28;19961;-82
2023/07/24 16:24:57;;;;;;;;;;;;;;;;;;4973285;28;19921;-81
2023/07/24 16:27:23;;;;;;;;;;;;;;;;;;4977519;28;19932;-82
2023/07/24 16:29:49;;;;;;;;;;;;;;;;;;4986008;28;20583;-81
2023/07/24 16:32:15;;;;;;;;;;;;;;;;;;4974924;28;19922;-83